sensor_id;sensor_type;location;lat;lon;timestamp;pressure;altitude;pressure_sealevel;temperature;humidity
7105;BME280;3594;42.152;24.714;2022-07-04T00:00:07;-24436.41;;;22.30;nan
7105;BME280;3594;42.152;24.714;2022-07-04T00:02:33;-24439.03;;;22.39;nan
7105;BME280;3594;42.152;24.714;2022-07-04T00:04:59;-24432.00;;;22.14;nan
7105;BME280;3594;42.152;24.714;2022-07-04T00:07:25;-24436.84;;;22.31;nan
7105;BME280;3594;42.152;24.714;2022-07-04T00:09:50;-24431.03;;;22.10;nan
7105;BME280;3594;42.152;24.714;2022-07-04T00:12:16;-24421.19;;;21.74;nan
7105;BME280;3594;42.152;24.714;2022-07-04T00:14:41;-24417.84;;;21.62;nan
7105;BME280;3594;42.152;24.714;2022-07-04T00:17:07;-24418.69;;;21.65;nan
7105;BME280;3594;42.152;24.714;2022-07-04T00:19:32;-24419.94;;;21.70;nan
7105;BME280;3594;42.152;24.714;2022-07-04T00:21:58;-24425.63;;;21.90;nan
7105;BME280;3594;42.152;24.714;2022-07-04T00:24:24;-24422.16;;;21.78;nan
7105;BME280;3594;42.152;24.714;2022-07-04T00:26:49;-24421.19;;;21.74;nan
7105;BME280;3594;42.152;24.714;2022-07-04T00:29:15;-24412.19;;;21.41;nan
7105;BME280;3594;42.152;24.714;2022-07-04T00:31:40;-24420.22;;;21.71;nan
7105;BME280;3594;42.152;24.714;2022-07-04T00:34:06;-24418.13;;;21.63;nan
7105;BME280;3594;42.152;24.714;2022-07-04T00:36:32;-24419.38;;;21.68;nan
7105;BME280;3594;42.152;24.714;2022-07-04T00:38:57;-24416.88;;;21.58;nan
7105;BME280;3594;42.152;24.714;2022-07-04T00:41:22;-24416.75;;;21.58;nan
7105;BME280;3594;42.152;24.714;2022-07-04T00:44:09;-24418.41;;;21.64;nan
7105;BME280;3594;42.152;24.714;2022-07-04T00:46:35;-24412.88;;;21.44;nan
7105;BME280;3594;42.152;24.714;2022-07-04T00:49:03;-24407.19;;;21.23;nan
7105;BME280;3594;42.152;24.714;2022-07-04T00:51:28;-24403.72;;;21.10;nan
7105;BME280;3594;42.152;24.714;2022-07-04T00:53:55;-24404.97;;;21.15;nan
7105;BME280;3594;42.152;24.714;2022-07-04T00:56:24;-24393.44;;;20.73;nan
7105;BME280;3594;42.152;24.714;2022-07-04T00:58:50;-24393.88;;;20.75;nan
7105;BME280;3594;42.152;24.714;2022-07-04T01:01:17;-24384.16;;;20.39;nan
7105;BME280;3594;42.152;24.714;2022-07-04T01:03:43;-24380.81;;;20.27;nan
7105;BME280;3594;42.152;24.714;2022-07-04T01:06:09;-24297.00;;;17.22;nan
7105;BME280;3594;42.152;24.714;2022-07-04T01:08:40;-24392.91;;;20.71;nan
7105;BME280;3594;42.152;24.714;2022-07-04T01:11:06;-24400.13;;;20.97;nan
7105;BME280;3594;42.152;24.714;2022-07-04T01:13:32;-24390.97;;;20.64;nan
7105;BME280;3594;42.152;24.714;2022-07-04T01:15:57;-24396.91;;;20.86;nan
7105;BME280;3594;42.152;24.714;2022-07-04T01:18:23;-24394.28;;;20.76;nan
7105;BME280;3594;42.152;24.714;2022-07-04T01:20:48;-24387.06;;;20.50;nan
7105;BME280;3594;42.152;24.714;2022-07-04T01:23:14;-24383.31;;;20.36;nan
7105;BME280;3594;42.152;24.714;2022-07-04T01:25:41;-24387.34;;;20.51;nan
7105;BME280;3594;42.152;24.714;2022-07-04T01:28:07;-24386.09;;;20.46;nan
7105;BME280;3594;42.152;24.714;2022-07-04T01:30:33;-24388.59;;;20.55;nan
7105;BME280;3594;42.152;24.714;2022-07-04T01:32:59;-24378.03;;;20.17;nan
7105;BME280;3594;42.152;24.714;2022-07-04T01:35:24;-24384.44;;;20.40;nan
7105;BME280;3594;42.152;24.714;2022-07-04T01:37:50;-24386.78;;;20.49;nan
7105;BME280;3594;42.152;24.714;2022-07-04T01:40:16;-24382.34;;;20.33;nan
7105;BME280;3594;42.152;24.714;2022-07-04T01:42:42;-24383.47;;;20.37;nan
7105;BME280;3594;42.152;24.714;2022-07-04T01:45:08;-24385.81;;;20.45;nan
7105;BME280;3594;42.152;24.714;2022-07-04T01:47:35;-24377.06;;;20.13;nan
7105;BME280;3594;42.152;24.714;2022-07-04T01:50:01;-24380.53;;;20.26;nan
7105;BME280;3594;42.152;24.714;2022-07-04T01:52:39;-24376.94;;;20.13;nan
7105;BME280;3594;42.152;24.714;2022-07-04T01:55:17;-24377.63;;;20.15;nan
7105;BME280;3594;42.152;24.714;2022-07-04T01:57:47;-24370.13;;;19.88;nan
7105;BME280;3594;42.152;24.714;2022-07-04T02:00:13;-24376.38;;;20.11;nan
7105;BME280;3594;42.152;24.714;2022-07-04T02:03:07;-24375.00;;;20.06;nan
7105;BME280;3594;42.152;24.714;2022-07-04T02:06:00;-24375.81;;;20.09;nan
7105;BME280;3594;42.152;24.714;2022-07-04T02:08:41;-24376.25;;;20.10;nan
7105;BME280;3594;42.152;24.714;2022-07-04T02:11:25;-24376.25;;;20.10;nan
7105;BME280;3594;42.152;24.714;2022-07-04T02:13:51;-24369.97;;;19.88;nan
7105;BME280;3594;42.152;24.714;2022-07-04T02:16:16;-24361.78;;;19.58;nan
7105;BME280;3594;42.152;24.714;2022-07-04T02:18:42;-24367.75;;;19.79;nan
7105;BME280;3594;42.152;24.714;2022-07-04T02:21:07;-24360.81;;;19.54;nan
7105;BME280;3594;42.152;24.714;2022-07-04T02:23:33;-24365.53;;;19.71;nan
7105;BME280;3594;42.152;24.714;2022-07-04T02:25:58;-24358.72;;;19.47;nan
7105;BME280;3594;42.152;24.714;2022-07-04T02:28:23;-24362.34;;;19.60;nan
7105;BME280;3594;42.152;24.714;2022-07-04T02:30:49;-24360.13;;;19.52;nan
7105;BME280;3594;42.152;24.714;2022-07-04T02:33:14;-24363.59;;;19.64;nan
7105;BME280;3594;42.152;24.714;2022-07-04T02:35:40;-24368.31;;;19.81;nan
7105;BME280;3594;42.152;24.714;2022-07-04T02:38:05;-24368.47;;;19.82;nan
7105;BME280;3594;42.152;24.714;2022-07-04T02:40:30;-24360.25;;;19.52;nan
7105;BME280;3594;42.152;24.714;2022-07-04T02:42:56;-24367.91;;;19.80;nan
7105;BME280;3594;42.152;24.714;2022-07-04T02:45:21;-24359.84;;;19.51;nan
7105;BME280;3594;42.152;24.714;2022-07-04T02:47:47;-24360.13;;;19.52;nan
7105;BME280;3594;42.152;24.714;2022-07-04T02:50:12;-24356.78;;;19.39;nan
7105;BME280;3594;42.152;24.714;2022-07-04T02:52:38;-24367.47;;;19.78;nan
7105;BME280;3594;42.152;24.714;2022-07-04T02:55:03;-24362.34;;;19.60;nan
7105;BME280;3594;42.152;24.714;2022-07-04T02:57:29;-24368.31;;;19.81;nan
7105;BME280;3594;42.152;24.714;2022-07-04T02:59:54;-24362.47;;;19.60;nan
7105;BME280;3594;42.152;24.714;2022-07-04T03:02:20;-24368.72;;;19.83;nan
7105;BME280;3594;42.152;24.714;2022-07-04T03:04:45;-24371.50;;;19.93;nan
7105;BME280;3594;42.152;24.714;2022-07-04T03:07:11;-24381.66;;;20.30;nan
7105;BME280;3594;42.152;24.714;2022-07-04T03:09:36;-24396.66;;;20.85;nan
7105;BME280;3594;42.152;24.714;2022-07-04T03:12:02;-24411.75;;;21.40;nan
7105;BME280;3594;42.152;24.714;2022-07-04T03:14:27;-24424.66;;;21.87;nan
7105;BME280;3594;42.152;24.714;2022-07-04T03:16:53;-24434.63;;;22.23;nan
7105;BME280;3594;42.152;24.714;2022-07-04T03:19:18;-24455.91;;;23.01;nan
7105;BME280;3594;42.152;24.714;2022-07-04T03:21:43;-24464.75;;;23.33;nan
7105;BME280;3594;42.152;24.714;2022-07-04T03:24:09;-24481.31;;;23.94;nan
7105;BME280;3594;42.152;24.714;2022-07-04T03:26:35;-24488.09;;;24.19;nan
7105;BME280;3594;42.152;24.714;2022-07-04T03:29:01;-24505.72;;;24.84;nan
7105;BME280;3594;42.152;24.714;2022-07-04T03:31:27;-24525.56;;;25.57;nan
7105;BME280;3594;42.152;24.714;2022-07-04T03:33:53;-24534.91;;;25.91;nan
7105;BME280;3594;42.152;24.714;2022-07-04T03:36:19;-24546.72;;;26.34;nan
7105;BME280;3594;42.152;24.714;2022-07-04T03:38:45;-24562.66;;;26.93;nan
7105;BME280;3594;42.152;24.714;2022-07-04T03:41:11;-24569.63;;;27.19;nan
7105;BME280;3594;42.152;24.714;2022-07-04T03:43:36;-24592.94;;;28.05;nan
7105;BME280;3594;42.152;24.714;2022-07-04T03:46:02;-24596.50;;;28.18;nan
7105;BME280;3594;42.152;24.714;2022-07-04T03:48:28;-24613.72;;;28.82;nan
7105;BME280;3594;42.152;24.714;2022-07-04T03:50:54;-24634.75;;;29.60;nan
7105;BME280;3594;42.152;24.714;2022-07-04T03:53:20;-24615.91;;;28.90;nan
7105;BME280;3594;42.152;24.714;2022-07-04T03:55:46;-24653.59;;;30.29;nan
7105;BME280;3594;42.152;24.714;2022-07-04T03:58:11;-24668.56;;;30.85;nan
7105;BME280;3594;42.152;24.714;2022-07-04T04:00:37;-24662.72;;;30.63;nan
7105;BME280;3594;42.152;24.714;2022-07-04T04:03:02;-24661.22;;;30.58;nan
7105;BME280;3594;42.152;24.714;2022-07-04T04:05:48;-24659.03;;;30.50;nan
7105;BME280;3594;42.152;24.714;2022-07-04T04:08:13;-24662.72;;;30.63;nan
7105;BME280;3594;42.152;24.714;2022-07-04T04:10:39;-24677.84;;;31.20;nan
7105;BME280;3594;42.152;24.714;2022-07-04T04:13:04;-24679.59;;;31.26;nan
7105;BME280;3594;42.152;24.714;2022-07-04T04:15:30;-24660.69;;;30.56;nan
7105;BME280;3594;42.152;24.714;2022-07-04T04:17:55;-24675.91;;;31.12;nan
7105;BME280;3594;42.152;24.714;2022-07-04T04:20:20;-24694.97;;;31.83;nan
7105;BME280;3594;42.152;24.714;2022-07-04T04:22:46;-24689.41;;;31.63;nan
7105;BME280;3594;42.152;24.714;2022-07-04T04:25:11;-24682.88;;;31.38;nan
7105;BME280;3594;42.152;24.714;2022-07-04T04:27:37;-24700.78;;;32.05;nan
7105;BME280;3594;42.152;24.714;2022-07-04T04:30:03;-24695.78;;;31.86;nan
7105;BME280;3594;42.152;24.714;2022-07-04T04:32:29;-24699.16;;;31.99;nan
7105;BME280;3594;42.152;24.714;2022-07-04T04:34:54;-24694.41;;;31.81;nan
7105;BME280;3594;42.152;24.714;2022-07-04T04:37:20;-24682.72;;;31.38;nan
7105;BME280;3594;42.152;24.714;2022-07-04T04:39:45;-24695.78;;;31.86;nan
7105;BME280;3594;42.152;24.714;2022-07-04T04:42:11;-24685.97;;;31.50;nan
7105;BME280;3594;42.152;24.714;2022-07-04T04:44:36;-24685.16;;;31.47;nan
7105;BME280;3594;42.152;24.714;2022-07-04T04:47:02;-24679.88;;;31.27;nan
7105;BME280;3594;42.152;24.714;2022-07-04T04:49:27;-24690.06;;;31.65;nan
7105;BME280;3594;42.152;24.714;2022-07-04T04:51:53;-24675.53;;;31.11;nan
7105;BME280;3594;42.152;24.714;2022-07-04T04:54:18;-24673.75;;;31.04;nan
7105;BME280;3594;42.152;24.714;2022-07-04T04:56:44;-24682.44;;;31.37;nan
7105;BME280;3594;42.152;24.714;2022-07-04T04:59:09;-24688.03;;;31.58;nan
7105;BME280;3594;42.152;24.714;2022-07-04T05:01:35;-24667.75;;;30.82;nan
7105;BME280;3594;42.152;24.714;2022-07-04T05:04:00;-24669.66;;;30.89;nan
7105;BME280;3594;42.152;24.714;2022-07-04T05:06:26;-24660.94;;;30.57;nan
7105;BME280;3594;42.152;24.714;2022-07-04T05:08:51;-24658.50;;;30.48;nan
7105;BME280;3594;42.152;24.714;2022-07-04T05:11:17;-24652.91;;;30.27;nan
7105;BME280;3594;42.152;24.714;2022-07-04T05:13:43;-24647.44;;;30.07;nan
7105;BME280;3594;42.152;24.714;2022-07-04T05:16:09;-24660.13;;;30.54;nan
7105;BME280;3594;42.152;24.714;2022-07-04T05:18:34;-24654.13;;;30.32;nan
7105;BME280;3594;42.152;24.714;2022-07-04T05:21:00;-24649.63;;;30.15;nan
7105;BME280;3594;42.152;24.714;2022-07-04T05:23:25;-24668.16;;;30.84;nan
7105;BME280;3594;42.152;24.714;2022-07-04T05:25:51;-24669.66;;;30.89;nan
7105;BME280;3594;42.152;24.714;2022-07-04T05:28:16;-24677.56;;;31.19;nan
7105;BME280;3594;42.152;24.714;2022-07-04T05:30:42;-24653.59;;;30.29;nan
7105;BME280;3594;42.152;24.714;2022-07-04T05:33:07;-24651.94;;;30.23;nan
7105;BME280;3594;42.152;24.714;2022-07-04T05:35:33;-24567.72;;;27.12;nan
7105;BME280;3594;42.152;24.714;2022-07-04T05:37:58;-24652.34;;;30.25;nan
7105;BME280;3594;42.152;24.714;2022-07-04T05:40:24;-24660.69;;;30.56;nan
7105;BME280;3594;42.152;24.714;2022-07-04T05:42:49;-24644.59;;;29.96;nan
7105;BME280;3594;42.152;24.714;2022-07-04T05:45:15;-24644.03;;;29.94;nan
7105;BME280;3594;42.152;24.714;2022-07-04T05:47:41;-24643.09;;;29.91;nan
7105;BME280;3594;42.152;24.714;2022-07-04T05:50:06;-24633.94;;;29.57;nan
7105;BME280;3594;42.152;24.714;2022-07-04T05:52:32;-24622.75;;;29.15;nan
7105;BME280;3594;42.152;24.714;2022-07-04T05:54:57;-24611.69;;;28.74;nan
7105;BME280;3594;42.152;24.714;2022-07-04T05:57:23;-24609.34;;;28.66;nan
7105;BME280;3594;42.152;24.714;2022-07-04T05:59:49;-24599.66;;;28.30;nan
7105;BME280;3594;42.152;24.714;2022-07-04T06:02:14;-24567.72;;;27.12;nan
7105;BME280;3594;42.152;24.714;2022-07-04T06:04:40;-24573.88;;;27.35;nan
7105;BME280;3594;42.152;24.714;2022-07-04T06:07:06;-24559.91;;;26.83;nan
7105;BME280;3594;42.152;24.714;2022-07-04T06:09:31;-24557.44;;;26.74;nan
7105;BME280;3594;42.152;24.714;2022-07-04T06:11:58;-24561.97;;;26.91;nan
7105;BME280;3594;42.152;24.714;2022-07-04T06:14:23;-24559.91;;;26.83;nan
7105;BME280;3594;42.152;24.714;2022-07-04T06:16:49;-24563.75;;;26.97;nan
7105;BME280;3594;42.152;24.714;2022-07-04T06:19:14;-24556.88;;;26.72;nan
7105;BME280;3594;42.152;24.714;2022-07-04T06:21:40;-24555.09;;;26.65;nan
7105;BME280;3594;42.152;24.714;2022-07-04T06:24:05;-24563.75;;;26.97;nan
7105;BME280;3594;42.152;24.714;2022-07-04T06:26:31;-24567.03;;;27.09;nan
7105;BME280;3594;42.152;24.714;2022-07-04T06:28:56;-24573.75;;;27.34;nan
7105;BME280;3594;42.152;24.714;2022-07-04T06:31:22;-24566.91;;;27.09;nan
7105;BME280;3594;42.152;24.714;2022-07-04T06:33:48;-24567.72;;;27.12;nan
7105;BME280;3594;42.152;24.714;2022-07-04T06:36:43;-24544.66;;;26.27;nan
7105;BME280;3594;42.152;24.714;2022-07-04T06:39:09;-24558.53;;;26.78;nan
7105;BME280;3594;42.152;24.714;2022-07-04T06:41:35;-24563.19;;;26.95;nan
7105;BME280;3594;42.152;24.714;2022-07-04T06:44:00;-24565.13;;;27.02;nan
7105;BME280;3594;42.152;24.714;2022-07-04T06:46:25;-24568.53;;;27.15;nan
7105;BME280;3594;42.152;24.714;2022-07-04T06:48:51;-24565.38;;;27.03;nan
7105;BME280;3594;42.152;24.714;2022-07-04T06:51:17;-24570.19;;;27.21;nan
7105;BME280;3594;42.152;24.714;2022-07-04T06:53:42;-24580.75;;;27.60;nan
7105;BME280;3594;42.152;24.714;2022-07-04T06:56:10;-24586.78;;;27.82;nan
7105;BME280;3594;42.152;24.714;2022-07-04T06:58:35;-24580.75;;;27.60;nan
7105;BME280;3594;42.152;24.714;2022-07-04T07:01:01;-24586.22;;;27.80;nan
7105;BME280;3594;42.152;24.714;2022-07-04T07:03:26;-24588.00;;;27.87;nan
7105;BME280;3594;42.152;24.714;2022-07-04T07:05:53;-24589.38;;;27.92;nan
7105;BME280;3594;42.152;24.714;2022-07-04T07:08:18;-24585.94;;;27.79;nan
7105;BME280;3594;42.152;24.714;2022-07-04T07:10:44;-24589.78;;;27.93;nan
7105;BME280;3594;42.152;24.714;2022-07-04T07:13:09;-24583.63;;;27.71;nan
7105;BME280;3594;42.152;24.714;2022-07-04T07:15:35;-24593.75;;;28.08;nan
7105;BME280;3594;42.152;24.714;2022-07-04T07:18:02;-24604.84;;;28.49;nan
7105;BME280;3594;42.152;24.714;2022-07-04T07:20:28;-24603.34;;;28.43;nan
7105;BME280;3594;42.152;24.714;2022-07-04T07:22:53;-24603.19;;;28.43;nan
7105;BME280;3594;42.152;24.714;2022-07-04T07:25:19;-24601.56;;;28.37;nan
7105;BME280;3594;42.152;24.714;2022-07-04T07:27:44;-24604.28;;;28.47;nan
7105;BME280;3594;42.152;24.714;2022-07-04T07:30:10;-24603.47;;;28.44;nan
7105;BME280;3594;42.152;24.714;2022-07-04T07:32:35;-24603.88;;;28.45;nan
7105;BME280;3594;42.152;24.714;2022-07-04T07:35:01;-24610.88;;;28.71;nan
7105;BME280;3594;42.152;24.714;2022-07-04T07:37:26;-24602.50;;;28.40;nan
7105;BME280;3594;42.152;24.714;2022-07-04T07:39:52;-24610.16;;;28.69;nan
7105;BME280;3594;42.152;24.714;2022-07-04T07:42:18;-24612.78;;;28.78;nan
7105;BME280;3594;42.152;24.714;2022-07-04T07:44:43;-24615.09;;;28.87;nan
7105;BME280;3594;42.152;24.714;2022-07-04T07:47:14;-24617.56;;;28.96;nan
7105;BME280;3594;42.152;24.714;2022-07-04T07:49:41;-24615.09;;;28.87;nan
7105;BME280;3594;42.152;24.714;2022-07-04T07:52:07;-24611.41;;;28.73;nan
7105;BME280;3594;42.152;24.714;2022-07-04T07:54:32;-24621.94;;;29.12;nan
7105;BME280;3594;42.152;24.714;2022-07-04T07:56:58;-24618.09;;;28.98;nan
7105;BME280;3594;42.152;24.714;2022-07-04T07:59:23;-24622.47;;;29.14;nan
7105;BME280;3594;42.152;24.714;2022-07-04T08:01:49;-24619.19;;;29.02;nan
7105;BME280;3594;42.152;24.714;2022-07-04T08:04:14;-24632.44;;;29.51;nan
7105;BME280;3594;42.152;24.714;2022-07-04T08:06:58;-24631.22;;;29.47;nan
7105;BME280;3594;42.152;24.714;2022-07-04T08:09:24;-24634.91;;;29.60;nan
7105;BME280;3594;42.152;24.714;2022-07-04T08:11:49;-24633.25;;;29.54;nan
7105;BME280;3594;42.152;24.714;2022-07-04T08:14:15;-24638.72;;;29.74;nan
7105;BME280;3594;42.152;24.714;2022-07-04T08:16:40;-24644.19;;;29.95;nan
7105;BME280;3594;42.152;24.714;2022-07-04T08:19:06;-24644.72;;;29.97;nan
7105;BME280;3594;42.152;24.714;2022-07-04T08:21:31;-24646.38;;;30.03;nan
7105;BME280;3594;42.152;24.714;2022-07-04T08:23:57;-24649.09;;;30.13;nan
7105;BME280;3594;42.152;24.714;2022-07-04T08:26:23;-24643.91;;;29.94;nan
7105;BME280;3594;42.152;24.714;2022-07-04T08:28:49;-24646.63;;;30.04;nan
7105;BME280;3594;42.152;24.714;2022-07-04T08:31:18;-24652.09;;;30.24;nan
7105;BME280;3594;42.152;24.714;2022-07-04T08:33:44;-24651.13;;;30.20;nan
7105;BME280;3594;42.152;24.714;2022-07-04T08:36:09;-24645.81;;;30.01;nan
7105;BME280;3594;42.152;24.714;2022-07-04T08:38:35;-24646.63;;;30.04;nan
7105;BME280;3594;42.152;24.714;2022-07-04T08:41:02;-24646.09;;;30.02;nan
7105;BME280;3594;42.152;24.714;2022-07-04T08:43:30;-24649.63;;;30.15;nan
7105;BME280;3594;42.152;24.714;2022-07-04T08:45:59;-24652.09;;;30.24;nan
7105;BME280;3594;42.152;24.714;2022-07-04T08:48:27;-24654.81;;;30.34;nan
7105;BME280;3594;42.152;24.714;2022-07-04T08:50:59;-24656.31;;;30.40;nan
7105;BME280;3594;42.152;24.714;2022-07-04T08:53:30;-24661.50;;;30.59;nan
7105;BME280;3594;42.152;24.714;2022-07-04T08:55:56;-24665.97;;;30.76;nan
7105;BME280;3594;42.152;24.714;2022-07-04T08:58:42;-24664.50;;;30.70;nan
7105;BME280;3594;42.152;24.714;2022-07-04T09:01:10;-24672.53;;;31.00;nan
7105;BME280;3594;42.152;24.714;2022-07-04T09:03:43;-24675.66;;;31.11;nan
7105;BME280;3594;42.152;24.714;2022-07-04T09:06:10;-24670.22;;;30.91;nan
7105;BME280;3594;42.152;24.714;2022-07-04T09:08:37;-24677.97;;;31.20;nan
7105;BME280;3594;42.152;24.714;2022-07-04T09:11:03;-24676.88;;;31.16;nan
7105;BME280;3594;42.152;24.714;2022-07-04T09:13:29;-24680.97;;;31.31;nan
7105;BME280;3594;42.152;24.714;2022-07-04T09:15:55;-24685.59;;;31.48;nan
7105;BME280;3594;42.152;24.714;2022-07-04T09:20:46;-24677.56;;;31.19;nan
7105;BME280;3594;42.152;24.714;2022-07-04T09:23:19;-24670.88;;;30.94;nan
7105;BME280;3594;42.152;24.714;2022-07-04T09:25:46;-24676.59;;;31.15;nan
7105;BME280;3594;42.152;24.714;2022-07-04T09:28:11;-24671.44;;;30.96;nan
7105;BME280;3594;42.152;24.714;2022-07-04T09:30:50;-24679.19;;;31.25;nan
7105;BME280;3594;42.152;24.714;2022-07-04T09:33:16;-24692.94;;;31.76;nan
7105;BME280;3594;42.152;24.714;2022-07-04T09:35:43;-24698.75;;;31.97;nan
7105;BME280;3594;42.152;24.714;2022-07-04T09:38:10;-24695.22;;;31.84;nan
7105;BME280;3594;42.152;24.714;2022-07-04T09:40:40;-24705.69;;;32.23;nan
7105;BME280;3594;42.152;24.714;2022-07-04T09:43:25;-24697.00;;;31.91;nan
7105;BME280;3594;42.152;24.714;2022-07-04T09:46:10;-24710.03;;;32.39;nan
7105;BME280;3594;42.152;24.714;2022-07-04T09:48:56;-24717.09;;;32.66;nan
7105;BME280;3594;42.152;24.714;2022-07-04T09:51:43;-24705.81;;;32.24;nan
7105;BME280;3594;42.152;24.714;2022-07-04T09:54:35;-24709.75;;;32.38;nan
7105;BME280;3594;42.152;24.714;2022-07-04T09:57:02;-24690.06;;;31.65;nan
7105;BME280;3594;42.152;24.714;2022-07-04T09:59:29;-24689.41;;;31.63;nan
7105;BME280;3594;42.152;24.714;2022-07-04T10:02:09;-24686.94;;;31.53;nan
7105;BME280;3594;42.152;24.714;2022-07-04T10:04:47;-24687.75;;;31.56;nan
7105;BME280;3594;42.152;24.714;2022-07-04T10:07:33;-24692.25;;;31.73;nan
7105;BME280;3594;42.152;24.714;2022-07-04T10:10:20;-24706.66;;;32.27;nan
7105;BME280;3594;42.152;24.714;2022-07-04T10:12:48;-24707.31;;;32.29;nan
7105;BME280;3594;42.152;24.714;2022-07-04T10:15:15;-24689.94;;;31.65;nan
7105;BME280;3594;42.152;24.714;2022-07-04T10:17:41;-24698.75;;;31.97;nan
7105;BME280;3594;42.152;24.714;2022-07-04T10:20:07;-24688.03;;;31.58;nan
7105;BME280;3594;42.152;24.714;2022-07-04T10:22:35;-24688.56;;;31.60;nan
7105;BME280;3594;42.152;24.714;2022-07-04T10:25:01;-24600.59;;;28.33;nan
7105;BME280;3594;42.152;24.714;2022-07-04T10:27:27;-24693.06;;;31.76;nan
7105;BME280;3594;42.152;24.714;2022-07-04T10:29:53;-24694.81;;;31.83;nan
7105;BME280;3594;42.152;24.714;2022-07-04T10:32:19;-24702.03;;;32.10;nan
7105;BME280;3594;42.152;24.714;2022-07-04T10:34:45;-24710.31;;;32.40;nan
7105;BME280;3594;42.152;24.714;2022-07-04T10:37:10;-24715.47;;;32.60;nan
7105;BME280;3594;42.152;24.714;2022-07-04T10:39:36;-24711.25;;;32.44;nan
7105;BME280;3594;42.152;24.714;2022-07-04T10:42:02;-24603.19;;;28.43;nan
7105;BME280;3594;42.152;24.714;2022-07-04T10:44:28;-24694.28;;;31.81;nan
7105;BME280;3594;42.152;24.714;2022-07-04T10:47:02;-24596.91;;;28.20;nan
7105;BME280;3594;42.152;24.714;2022-07-04T10:49:28;-24626.72;;;29.30;nan
7105;BME280;3594;42.152;24.714;2022-07-04T10:51:56;-24689.41;;;31.63;nan
7105;BME280;3594;42.152;24.714;2022-07-04T10:59:27;-24705.28;;;32.22;nan
7105;BME280;3594;42.152;24.714;2022-07-04T11:04:54;-24704.19;;;32.18;nan
7105;BME280;3594;42.152;24.714;2022-07-04T11:18:04;-24696.88;;;31.90;nan
7105;BME280;3594;42.152;24.714;2022-07-04T11:20:34;-24681.09;;;31.32;nan
7105;BME280;3594;42.152;24.714;2022-07-04T11:25:34;-24693.06;;;31.76;nan
7105;BME280;3594;42.152;24.714;2022-07-04T11:28:25;-24711.53;;;32.45;nan
7105;BME280;3594;42.152;24.714;2022-07-04T11:30:52;-24709.09;;;32.36;nan
7105;BME280;3594;42.152;24.714;2022-07-04T11:33:22;-24641.31;;;29.84;nan
7105;BME280;3594;42.152;24.714;2022-07-04T11:36:08;-24699.97;;;32.02;nan
7105;BME280;3594;42.152;24.714;2022-07-04T11:38:59;-24709.50;;;32.37;nan
7105;BME280;3594;42.152;24.714;2022-07-04T11:41:28;-24708.94;;;32.35;nan
7105;BME280;3594;42.152;24.714;2022-07-04T11:44:15;-24637.75;;;29.71;nan
7105;BME280;3594;42.152;24.714;2022-07-04T11:47:09;-24716.81;;;32.65;nan
7105;BME280;3594;42.152;24.714;2022-07-04T11:49:42;-24721.56;;;32.82;nan
7105;BME280;3594;42.152;24.714;2022-07-04T11:52:08;-24717.09;;;32.66;nan
7105;BME280;3594;42.152;24.714;2022-07-04T11:54:33;-24712.19;;;32.48;nan
7105;BME280;3594;42.152;24.714;2022-07-04T11:57:13;-24696.19;;;31.88;nan
7105;BME280;3594;42.152;24.714;2022-07-04T11:59:39;-24698.63;;;31.97;nan
7105;BME280;3594;42.152;24.714;2022-07-04T12:02:13;-24697.00;;;31.91;nan
7105;BME280;3594;42.152;24.714;2022-07-04T12:04:40;-24703.53;;;32.15;nan
7105;BME280;3594;42.152;24.714;2022-07-04T12:07:31;-24714.91;;;32.58;nan
7105;BME280;3594;42.152;24.714;2022-07-04T12:10:15;-24719.41;;;32.74;nan
7105;BME280;3594;42.152;24.714;2022-07-04T12:15:21;-24712.34;;;32.48;nan
7105;BME280;3594;42.152;24.714;2022-07-04T12:17:54;-24722.09;;;32.84;nan
7105;BME280;3594;42.152;24.714;2022-07-04T12:20:24;-24711.94;;;32.47;nan
7105;BME280;3594;42.152;24.714;2022-07-04T12:22:55;-24713.16;;;32.51;nan
7105;BME280;3594;42.152;24.714;2022-07-04T12:27:59;-24703.25;;;32.14;nan
7105;BME280;3594;42.152;24.714;2022-07-04T12:30:26;-24707.31;;;32.29;nan
7105;BME280;3594;42.152;24.714;2022-07-04T12:33:13;-24711.81;;;32.46;nan
7105;BME280;3594;42.152;24.714;2022-07-04T12:35:48;-24726.84;;;33.02;nan
7105;BME280;3594;42.152;24.714;2022-07-04T12:38:16;-24720.63;;;32.79;nan
7105;BME280;3594;42.152;24.714;2022-07-04T12:41:31;-24722.25;;;32.85;nan
7105;BME280;3594;42.152;24.714;2022-07-04T12:43:50;-24729.56;;;33.12;nan
7105;BME280;3594;42.152;24.714;2022-07-04T12:46:32;-24741.47;;;33.57;nan
7105;BME280;3594;42.152;24.714;2022-07-04T12:48:59;-24736.19;;;33.37;nan
7105;BME280;3594;42.152;24.714;2022-07-04T12:51:28;-24716.41;;;32.63;nan
7105;BME280;3594;42.152;24.714;2022-07-04T12:53:56;-24711.13;;;32.43;nan
7105;BME280;3594;42.152;24.714;2022-07-04T12:56:34;-24706.50;;;32.26;nan
7105;BME280;3594;42.152;24.714;2022-07-04T12:59:06;-24705.56;;;32.23;nan
7105;BME280;3594;42.152;24.714;2022-07-04T13:01:31;-24695.50;;;31.85;nan
7105;BME280;3594;42.152;24.714;2022-07-04T13:03:58;-24699.16;;;31.99;nan
7105;BME280;3594;42.152;24.714;2022-07-04T13:06:24;-24708.00;;;32.32;nan
7105;BME280;3594;42.152;24.714;2022-07-04T13:08:50;-24617.69;;;28.96;nan
7105;BME280;3594;42.152;24.714;2022-07-04T13:14:07;-24709.75;;;32.38;nan
7105;BME280;3594;42.152;24.714;2022-07-04T13:16:33;-24698.22;;;31.95;nan
7105;BME280;3594;42.152;24.714;2022-07-04T13:18:59;-24709.22;;;32.36;nan
7105;BME280;3594;42.152;24.714;2022-07-04T13:21:25;-24708.00;;;32.32;nan
7105;BME280;3594;42.152;24.714;2022-07-04T13:23:52;-24705.69;;;32.23;nan
7105;BME280;3594;42.152;24.714;2022-07-04T13:26:17;-24699.16;;;31.99;nan
7105;BME280;3594;42.152;24.714;2022-07-04T13:28:42;-24700.53;;;32.04;nan
7105;BME280;3594;42.152;24.714;2022-07-04T13:31:08;-24712.88;;;32.50;nan
7105;BME280;3594;42.152;24.714;2022-07-04T13:33:33;-24710.31;;;32.40;nan
7105;BME280;3594;42.152;24.714;2022-07-04T13:35:59;-24705.41;;;32.22;nan
7105;BME280;3594;42.152;24.714;2022-07-04T13:38:25;-24723.88;;;32.91;nan
7105;BME280;3594;42.152;24.714;2022-07-04T13:40:52;-24721.84;;;32.83;nan
7105;BME280;3594;42.152;24.714;2022-07-04T13:43:18;-24723.06;;;32.88;nan
7105;BME280;3594;42.152;24.714;2022-07-04T13:45:44;-24723.72;;;32.91;nan
7105;BME280;3594;42.152;24.714;2022-07-04T13:48:12;-24723.59;;;32.90;nan
7105;BME280;3594;42.152;24.714;2022-07-04T13:50:37;-24719.94;;;32.76;nan
7105;BME280;3594;42.152;24.714;2022-07-04T13:53:05;-24722.09;;;32.84;nan
7105;BME280;3594;42.152;24.714;2022-07-04T13:55:31;-24727.53;;;33.05;nan
7105;BME280;3594;42.152;24.714;2022-07-04T13:57:57;-24716.97;;;32.65;nan